sensor_id;sensor_type;location;lat;lon;timestamp;P1;durP1;ratioP1;P2;durP2;ratioP2
30617;SDS011;17384;51.214;9.202;2022-10-29T00:01:51;30.23;;;9.40;;
30617;SDS011;17384;51.214;9.202;2022-10-29T00:04:16;19.35;;;8.77;;
30617;SDS011;17384;51.214;9.202;2022-10-29T00:06:42;16.03;;;8.17;;
30617;SDS011;17384;51.214;9.202;2022-10-29T00:09:08;20.70;;;7.82;;
30617;SDS011;17384;51.214;9.202;2022-10-29T00:11:34;21.98;;;9.68;;
30617;SDS011;17384;51.214;9.202;2022-10-29T00:13:59;19.42;;;8.18;;
30617;SDS011;17384;51.214;9.202;2022-10-29T00:16:28;21.88;;;8.50;;
30617;SDS011;17384;51.214;9.202;2022-10-29T00:18:54;21.83;;;8.70;;
30617;SDS011;17384;51.214;9.202;2022-10-29T00:21:20;21.05;;;7.30;;
30617;SDS011;17384;51.214;9.202;2022-10-29T00:23:46;18.08;;;7.70;;
30617;SDS011;17384;51.214;9.202;2022-10-29T00:26:12;16.42;;;7.65;;
30617;SDS011;17384;51.214;9.202;2022-10-29T00:28:38;17.30;;;7.97;;
30617;SDS011;17384;51.214;9.202;2022-10-29T00:31:04;18.55;;;7.85;;
30617;SDS011;17384;51.214;9.202;2022-10-29T00:33:29;16.55;;;7.60;;
30617;SDS011;17384;51.214;9.202;2022-10-29T00:38:20;18.30;;;7.43;;
30617;SDS011;17384;51.214;9.202;2022-10-29T00:40:46;17.75;;;8.70;;
30617;SDS011;17384;51.214;9.202;2022-10-29T00:43:12;27.17;;;8.87;;
30617;SDS011;17384;51.214;9.202;2022-10-29T00:45:38;21.45;;;8.18;;
30617;SDS011;17384;51.214;9.202;2022-10-29T00:48:05;26.30;;;9.73;;
30617;SDS011;17384;51.214;9.202;2022-10-29T00:50:30;28.27;;;8.77;;
30617;SDS011;17384;51.214;9.202;2022-10-29T00:52:55;17.70;;;7.85;;
30617;SDS011;17384;51.214;9.202;2022-10-29T00:55:21;24.27;;;9.30;;
30617;SDS011;17384;51.214;9.202;2022-10-29T00:57:47;20.20;;;8.25;;
30617;SDS011;17384;51.214;9.202;2022-10-29T01:00:14;25.02;;;8.30;;
30617;SDS011;17384;51.214;9.202;2022-10-29T01:02:40;15.27;;;8.38;;
30617;SDS011;17384;51.214;9.202;2022-10-29T01:05:07;25.67;;;9.20;;
30617;SDS011;17384;51.214;9.202;2022-10-29T01:07:33;19.25;;;9.05;;
30617;SDS011;17384;51.214;9.202;2022-10-29T01:09:58;24.50;;;8.90;;
30617;SDS011;17384;51.214;9.202;2022-10-29T01:23:03;19.33;;;7.57;;
30617;SDS011;17384;51.214;9.202;2022-10-29T01:25:41;22.45;;;8.25;;
30617;SDS011;17384;51.214;9.202;2022-10-29T01:28:28;28.08;;;9.25;;
30617;SDS011;17384;51.214;9.202;2022-10-29T01:33:35;16.60;;;8.02;;
30617;SDS011;17384;51.214;9.202;2022-10-29T01:41:28;15.25;;;7.60;;
30617;SDS011;17384;51.214;9.202;2022-10-29T01:44:06;20.92;;;7.88;;
30617;SDS011;17384;51.214;9.202;2022-10-29T01:46:38;25.08;;;8.52;;
30617;SDS011;17384;51.214;9.202;2022-10-29T01:49:06;16.60;;;8.00;;
30617;SDS011;17384;51.214;9.202;2022-10-29T01:51:33;20.25;;;8.30;;
30617;SDS011;17384;51.214;9.202;2022-10-29T01:53:59;13.88;;;7.70;;
30617;SDS011;17384;51.214;9.202;2022-10-29T01:56:25;19.45;;;7.43;;
30617;SDS011;17384;51.214;9.202;2022-10-29T01:58:52;15.57;;;7.45;;
30617;SDS011;17384;51.214;9.202;2022-10-29T02:07:01;19.33;;;7.05;;
30617;SDS011;17384;51.214;9.202;2022-10-29T02:12:16;22.58;;;7.43;;
30617;SDS011;17384;51.214;9.202;2022-10-29T02:14:51;18.52;;;8.05;;
30617;SDS011;17384;51.214;9.202;2022-10-29T02:17:18;17.92;;;7.75;;
30617;SDS011;17384;51.214;9.202;2022-10-29T02:19:43;17.00;;;6.95;;
30617;SDS011;17384;51.214;9.202;2022-10-29T02:22:08;24.00;;;7.78;;
30617;SDS011;17384;51.214;9.202;2022-10-29T02:24:34;18.60;;;7.93;;
30617;SDS011;17384;51.214;9.202;2022-10-29T02:26:59;17.92;;;7.18;;
30617;SDS011;17384;51.214;9.202;2022-10-29T02:29:24;16.92;;;8.30;;
30617;SDS011;17384;51.214;9.202;2022-10-29T02:31:49;14.20;;;7.75;;
30617;SDS011;17384;51.214;9.202;2022-10-29T02:34:15;13.95;;;7.35;;
30617;SDS011;17384;51.214;9.202;2022-10-29T02:36:40;20.33;;;7.03;;
30617;SDS011;17384;51.214;9.202;2022-10-29T02:39:05;18.73;;;7.43;;
30617;SDS011;17384;51.214;9.202;2022-10-29T02:41:31;18.08;;;7.72;;
30617;SDS011;17384;51.214;9.202;2022-10-29T02:43:56;26.15;;;7.80;;
30617;SDS011;17384;51.214;9.202;2022-10-29T02:46:22;18.20;;;8.10;;
30617;SDS011;17384;51.214;9.202;2022-10-29T02:48:47;15.15;;;7.40;;
30617;SDS011;17384;51.214;9.202;2022-10-29T02:51:13;22.63;;;7.80;;
30617;SDS011;17384;51.214;9.202;2022-10-29T02:53:38;14.77;;;6.88;;
30617;SDS011;17384;51.214;9.202;2022-10-29T02:56:04;20.83;;;7.78;;
30617;SDS011;17384;51.214;9.202;2022-10-29T02:58:30;16.98;;;7.35;;
30617;SDS011;17384;51.214;9.202;2022-10-29T03:00:55;18.88;;;7.70;;
30617;SDS011;17384;51.214;9.202;2022-10-29T03:03:20;16.40;;;7.93;;
30617;SDS011;17384;51.214;9.202;2022-10-29T03:05:46;14.25;;;7.63;;
30617;SDS011;17384;51.214;9.202;2022-10-29T03:08:11;21.80;;;8.15;;
30617;SDS011;17384;51.214;9.202;2022-10-29T03:10:36;12.70;;;7.80;;
30617;SDS011;17384;51.214;9.202;2022-10-29T03:13:02;21.00;;;7.77;;
30617;SDS011;17384;51.214;9.202;2022-10-29T03:15:27;17.88;;;7.20;;
30617;SDS011;17384;51.214;9.202;2022-10-29T03:17:52;21.42;;;7.43;;
30617;SDS011;17384;51.214;9.202;2022-10-29T03:20:18;21.42;;;8.15;;
30617;SDS011;17384;51.214;9.202;2022-10-29T03:22:43;15.50;;;7.60;;
30617;SDS011;17384;51.214;9.202;2022-10-29T03:25:08;19.57;;;7.47;;
30617;SDS011;17384;51.214;9.202;2022-10-29T03:27:51;21.25;;;8.60;;
30617;SDS011;17384;51.214;9.202;2022-10-29T03:30:17;18.20;;;8.10;;
30617;SDS011;17384;51.214;9.202;2022-10-29T03:32:42;25.67;;;9.50;;
30617;SDS011;17384;51.214;9.202;2022-10-29T03:35:09;21.25;;;8.13;;
30617;SDS011;17384;51.214;9.202;2022-10-29T03:37:34;16.95;;;7.80;;
30617;SDS011;17384;51.214;9.202;2022-10-29T03:39:59;29.03;;;8.20;;
30617;SDS011;17384;51.214;9.202;2022-10-29T03:42:25;20.27;;;7.28;;
30617;SDS011;17384;51.214;9.202;2022-10-29T03:44:50;23.33;;;8.40;;
30617;SDS011;17384;51.214;9.202;2022-10-29T03:47:15;21.15;;;8.23;;
30617;SDS011;17384;51.214;9.202;2022-10-29T03:49:41;14.05;;;7.47;;
30617;SDS011;17384;51.214;9.202;2022-10-29T03:52:06;11.60;;;7.13;;
30617;SDS011;17384;51.214;9.202;2022-10-29T03:54:31;18.73;;;7.70;;
30617;SDS011;17384;51.214;9.202;2022-10-29T03:56:56;17.40;;;7.30;;
30617;SDS011;17384;51.214;9.202;2022-10-29T03:59:22;17.33;;;8.15;;
30617;SDS011;17384;51.214;9.202;2022-10-29T04:01:47;19.13;;;7.72;;
30617;SDS011;17384;51.214;9.202;2022-10-29T04:04:12;20.30;;;7.72;;
30617;SDS011;17384;51.214;9.202;2022-10-29T04:06:37;26.67;;;8.20;;
30617;SDS011;17384;51.214;9.202;2022-10-29T04:09:03;20.10;;;8.15;;
30617;SDS011;17384;51.214;9.202;2022-10-29T04:11:28;22.40;;;8.20;;
30617;SDS011;17384;51.214;9.202;2022-10-29T04:13:53;22.63;;;7.63;;
30617;SDS011;17384;51.214;9.202;2022-10-29T04:16:19;15.43;;;7.50;;
30617;SDS011;17384;51.214;9.202;2022-10-29T04:18:48;14.32;;;7.05;;
30617;SDS011;17384;51.214;9.202;2022-10-29T04:21:13;30.10;;;8.18;;
30617;SDS011;17384;51.214;9.202;2022-10-29T04:23:38;18.35;;;7.68;;
30617;SDS011;17384;51.214;9.202;2022-10-29T04:26:04;21.33;;;8.10;;
30617;SDS011;17384;51.214;9.202;2022-10-29T04:28:29;16.10;;;8.55;;
30617;SDS011;17384;51.214;9.202;2022-10-29T04:30:54;11.50;;;7.28;;
30617;SDS011;17384;51.214;9.202;2022-10-29T04:33:20;22.33;;;7.07;;
30617;SDS011;17384;51.214;9.202;2022-10-29T04:35:51;18.95;;;7.65;;
30617;SDS011;17384;51.214;9.202;2022-10-29T04:38:18;19.27;;;8.00;;
30617;SDS011;17384;51.214;9.202;2022-10-29T04:40:43;17.88;;;7.28;;
30617;SDS011;17384;51.214;9.202;2022-10-29T04:43:08;14.25;;;7.35;;
30617;SDS011;17384;51.214;9.202;2022-10-29T04:45:34;11.68;;;6.82;;
30617;SDS011;17384;51.214;9.202;2022-10-29T04:47:59;19.85;;;7.70;;
30617;SDS011;17384;51.214;9.202;2022-10-29T04:50:25;14.45;;;7.10;;
30617;SDS011;17384;51.214;9.202;2022-10-29T04:52:50;20.23;;;6.65;;
30617;SDS011;17384;51.214;9.202;2022-10-29T04:55:16;16.35;;;6.68;;
30617;SDS011;17384;51.214;9.202;2022-10-29T04:57:41;11.23;;;6.40;;
30617;SDS011;17384;51.214;9.202;2022-10-29T05:00:06;17.42;;;6.60;;
30617;SDS011;17384;51.214;9.202;2022-10-29T05:02:32;19.98;;;7.85;;
30617;SDS011;17384;51.214;9.202;2022-10-29T05:04:57;18.10;;;7.45;;
30617;SDS011;17384;51.214;9.202;2022-10-29T05:07:22;17.88;;;6.90;;
30617;SDS011;17384;51.214;9.202;2022-10-29T05:09:48;14.95;;;7.03;;
30617;SDS011;17384;51.214;9.202;2022-10-29T05:12:13;13.02;;;6.18;;
30617;SDS011;17384;51.214;9.202;2022-10-29T05:14:38;19.05;;;9.15;;
30617;SDS011;17384;51.214;9.202;2022-10-29T05:17:03;17.33;;;8.40;;
30617;SDS011;17384;51.214;9.202;2022-10-29T05:19:29;15.57;;;8.60;;
30617;SDS011;17384;51.214;9.202;2022-10-29T05:21:54;23.52;;;10.68;;
30617;SDS011;17384;51.214;9.202;2022-10-29T05:24:19;17.65;;;9.43;;
30617;SDS011;17384;51.214;9.202;2022-10-29T05:26:45;14.95;;;7.80;;
30617;SDS011;17384;51.214;9.202;2022-10-29T05:29:10;15.02;;;8.13;;
30617;SDS011;17384;51.214;9.202;2022-10-29T05:31:35;18.77;;;9.63;;
30617;SDS011;17384;51.214;9.202;2022-10-29T05:34:00;17.42;;;7.47;;
30617;SDS011;17384;51.214;9.202;2022-10-29T05:36:26;12.88;;;6.65;;
30617;SDS011;17384;51.214;9.202;2022-10-29T05:38:51;14.40;;;6.78;;
30617;SDS011;17384;51.214;9.202;2022-10-29T05:41:16;12.60;;;7.23;;
30617;SDS011;17384;51.214;9.202;2022-10-29T05:43:42;18.83;;;8.13;;
30617;SDS011;17384;51.214;9.202;2022-10-29T05:46:07;18.45;;;8.68;;
30617;SDS011;17384;51.214;9.202;2022-10-29T05:48:32;15.93;;;8.82;;
30617;SDS011;17384;51.214;9.202;2022-10-29T05:50:57;26.10;;;9.67;;
30617;SDS011;17384;51.214;9.202;2022-10-29T05:53:23;20.88;;;8.52;;
30617;SDS011;17384;51.214;9.202;2022-10-29T05:55:48;31.80;;;11.90;;
30617;SDS011;17384;51.214;9.202;2022-10-29T05:58:13;33.38;;;12.23;;
30617;SDS011;17384;51.214;9.202;2022-10-29T06:00:40;31.30;;;11.07;;
30617;SDS011;17384;51.214;9.202;2022-10-29T06:03:12;26.65;;;9.32;;
30617;SDS011;17384;51.214;9.202;2022-10-29T06:05:38;39.47;;;10.93;;
30617;SDS011;17384;51.214;9.202;2022-10-29T06:08:03;31.75;;;10.23;;
30617;SDS011;17384;51.214;9.202;2022-10-29T06:10:28;18.25;;;7.68;;
30617;SDS011;17384;51.214;9.202;2022-10-29T06:12:54;25.25;;;9.27;;
30617;SDS011;17384;51.214;9.202;2022-10-29T06:15:19;35.10;;;10.68;;
30617;SDS011;17384;51.214;9.202;2022-10-29T06:17:45;41.90;;;10.98;;
30617;SDS011;17384;51.214;9.202;2022-10-29T06:20:11;30.83;;;8.65;;
30617;SDS011;17384;51.214;9.202;2022-10-29T06:22:37;50.63;;;11.00;;
30617;SDS011;17384;51.214;9.202;2022-10-29T06:25:02;32.10;;;9.68;;
30617;SDS011;17384;51.214;9.202;2022-10-29T06:27:27;42.47;;;9.48;;
30617;SDS011;17384;51.214;9.202;2022-10-29T06:29:53;34.42;;;9.38;;
30617;SDS011;17384;51.214;9.202;2022-10-29T06:32:18;22.45;;;8.75;;
30617;SDS011;17384;51.214;9.202;2022-10-29T06:34:43;31.25;;;9.18;;
30617;SDS011;17384;51.214;9.202;2022-10-29T06:37:09;26.40;;;10.30;;
30617;SDS011;17384;51.214;9.202;2022-10-29T06:39:34;30.67;;;11.00;;
30617;SDS011;17384;51.214;9.202;2022-10-29T06:42:00;28.25;;;10.45;;
30617;SDS011;17384;51.214;9.202;2022-10-29T06:44:25;26.13;;;11.20;;
30617;SDS011;17384;51.214;9.202;2022-10-29T06:46:51;35.85;;;10.30;;
30617;SDS011;17384;51.214;9.202;2022-10-29T06:49:16;29.52;;;9.43;;
30617;SDS011;17384;51.214;9.202;2022-10-29T06:51:41;32.95;;;9.75;;
30617;SDS011;17384;51.214;9.202;2022-10-29T06:54:07;30.63;;;10.23;;
30617;SDS011;17384;51.214;9.202;2022-10-29T06:56:32;30.83;;;11.68;;
30617;SDS011;17384;51.214;9.202;2022-10-29T06:58:58;26.52;;;10.93;;
30617;SDS011;17384;51.214;9.202;2022-10-29T07:01:24;16.95;;;8.05;;
30617;SDS011;17384;51.214;9.202;2022-10-29T07:03:52;14.05;;;8.23;;
30617;SDS011;17384;51.214;9.202;2022-10-29T07:06:17;29.20;;;10.02;;
30617;SDS011;17384;51.214;9.202;2022-10-29T07:08:42;38.33;;;9.75;;
30617;SDS011;17384;51.214;9.202;2022-10-29T07:11:08;29.23;;;9.02;;
30617;SDS011;17384;51.214;9.202;2022-10-29T07:13:33;28.43;;;10.07;;
30617;SDS011;17384;51.214;9.202;2022-10-29T07:15:58;35.33;;;11.07;;
30617;SDS011;17384;51.214;9.202;2022-10-29T07:18:24;26.13;;;10.85;;
30617;SDS011;17384;51.214;9.202;2022-10-29T07:20:49;29.67;;;12.65;;
30617;SDS011;17384;51.214;9.202;2022-10-29T07:23:14;32.00;;;12.80;;
30617;SDS011;17384;51.214;9.202;2022-10-29T07:25:40;39.95;;;12.30;;
30617;SDS011;17384;51.214;9.202;2022-10-29T07:28:23;36.05;;;14.90;;
30617;SDS011;17384;51.214;9.202;2022-10-29T07:30:50;33.78;;;13.88;;
30617;SDS011;17384;51.214;9.202;2022-10-29T07:33:15;28.42;;;12.18;;
30617;SDS011;17384;51.214;9.202;2022-10-29T07:35:41;29.63;;;12.73;;
30617;SDS011;17384;51.214;9.202;2022-10-29T07:38:07;32.30;;;14.15;;
30617;SDS011;17384;51.214;9.202;2022-10-29T07:40:33;29.58;;;14.60;;
30617;SDS011;17384;51.214;9.202;2022-10-29T07:42:58;30.88;;;12.82;;
30617;SDS011;17384;51.214;9.202;2022-10-29T07:45:23;20.58;;;10.38;;
30617;SDS011;17384;51.214;9.202;2022-10-29T07:47:56;18.98;;;9.07;;
30617;SDS011;17384;51.214;9.202;2022-10-29T07:50:22;19.95;;;9.20;;
30617;SDS011;17384;51.214;9.202;2022-10-29T07:52:47;22.23;;;9.07;;
30617;SDS011;17384;51.214;9.202;2022-10-29T07:55:13;23.70;;;10.02;;
30617;SDS011;17384;51.214;9.202;2022-10-29T07:57:38;25.60;;;11.27;;
30617;SDS011;17384;51.214;9.202;2022-10-29T08:00:03;27.00;;;11.52;;
30617;SDS011;17384;51.214;9.202;2022-10-29T08:02:29;25.90;;;10.70;;
30617;SDS011;17384;51.214;9.202;2022-10-29T08:04:54;29.60;;;10.75;;
30617;SDS011;17384;51.214;9.202;2022-10-29T08:07:19;28.13;;;11.97;;
30617;SDS011;17384;51.214;9.202;2022-10-29T08:09:45;23.20;;;11.87;;
30617;SDS011;17384;51.214;9.202;2022-10-29T08:12:10;26.00;;;12.40;;
30617;SDS011;17384;51.214;9.202;2022-10-29T08:14:35;23.52;;;12.10;;
30617;SDS011;17384;51.214;9.202;2022-10-29T08:17:01;34.45;;;13.57;;
30617;SDS011;17384;51.214;9.202;2022-10-29T08:19:26;32.33;;;13.38;;
30617;SDS011;17384;51.214;9.202;2022-10-29T08:21:54;38.70;;;13.07;;
30617;SDS011;17384;51.214;9.202;2022-10-29T08:24:19;32.97;;;12.90;;
30617;SDS011;17384;51.214;9.202;2022-10-29T08:26:44;36.58;;;13.10;;
30617;SDS011;17384;51.214;9.202;2022-10-29T08:29:10;30.80;;;13.10;;
30617;SDS011;17384;51.214;9.202;2022-10-29T08:31:35;26.75;;;13.02;;
30617;SDS011;17384;51.214;9.202;2022-10-29T08:34:00;31.52;;;12.38;;
30617;SDS011;17384;51.214;9.202;2022-10-29T08:36:25;24.60;;;11.93;;
30617;SDS011;17384;51.214;9.202;2022-10-29T08:38:51;26.38;;;11.98;;
30617;SDS011;17384;51.214;9.202;2022-10-29T08:41:30;24.48;;;11.45;;
30617;SDS011;17384;51.214;9.202;2022-10-29T08:48:50;28.50;;;10.87;;
30617;SDS011;17384;51.214;9.202;2022-10-29T08:51:19;30.70;;;11.02;;
30617;SDS011;17384;51.214;9.202;2022-10-29T08:53:47;31.15;;;11.85;;
30617;SDS011;17384;51.214;9.202;2022-10-29T08:56:27;22.20;;;10.55;;
30617;SDS011;17384;51.214;9.202;2022-10-29T09:01:19;29.55;;;12.88;;
30617;SDS011;17384;51.214;9.202;2022-10-29T09:03:45;29.20;;;11.80;;
30617;SDS011;17384;51.214;9.202;2022-10-29T09:06:13;26.65;;;12.50;;
30617;SDS011;17384;51.214;9.202;2022-10-29T09:22:39;23.25;;;11.68;;
30617;SDS011;17384;51.214;9.202;2022-10-29T09:30:02;33.92;;;15.27;;
30617;SDS011;17384;51.214;9.202;2022-10-29T09:35:10;26.63;;;12.83;;
30617;SDS011;17384;51.214;9.202;2022-10-29T09:37:48;30.45;;;13.60;;
30617;SDS011;17384;51.214;9.202;2022-10-29T09:40:38;39.40;;;13.00;;
30617;SDS011;17384;51.214;9.202;2022-10-29T09:43:07;33.28;;;13.10;;
30617;SDS011;17384;51.214;9.202;2022-10-29T09:48:15;27.52;;;12.63;;
30617;SDS011;17384;51.214;9.202;2022-10-29T09:50:48;29.35;;;11.82;;
30617;SDS011;17384;51.214;9.202;2022-10-29T09:53:16;31.33;;;12.00;;
30617;SDS011;17384;51.214;9.202;2022-10-29T09:55:43;34.38;;;11.68;;
30617;SDS011;17384;51.214;9.202;2022-10-29T09:58:13;31.38;;;11.65;;
30617;SDS011;17384;51.214;9.202;2022-10-29T10:00:40;27.58;;;10.85;;
30617;SDS011;17384;51.214;9.202;2022-10-29T10:03:09;23.40;;;11.00;;
30617;SDS011;17384;51.214;9.202;2022-10-29T10:08:21;38.85;;;11.77;;
30617;SDS011;17384;51.214;9.202;2022-10-29T10:10:57;44.13;;;12.23;;
30617;SDS011;17384;51.214;9.202;2022-10-29T10:13:36;28.13;;;13.15;;
30617;SDS011;17384;51.214;9.202;2022-10-29T10:16:13;38.20;;;12.70;;
30617;SDS011;17384;51.214;9.202;2022-10-29T10:18:46;26.95;;;12.57;;
30617;SDS011;17384;51.214;9.202;2022-10-29T10:21:13;31.77;;;11.98;;
30617;SDS011;17384;51.214;9.202;2022-10-29T10:26:04;28.50;;;12.05;;
30617;SDS011;17384;51.214;9.202;2022-10-29T10:28:30;27.13;;;11.50;;
30617;SDS011;17384;51.214;9.202;2022-10-29T10:31:06;31.35;;;11.30;;
30617;SDS011;17384;51.214;9.202;2022-10-29T10:33:32;31.58;;;9.90;;
30617;SDS011;17384;51.214;9.202;2022-10-29T10:36:04;22.33;;;9.77;;
30617;SDS011;17384;51.214;9.202;2022-10-29T10:39:04;17.17;;;9.27;;
30617;SDS011;17384;51.214;9.202;2022-10-29T10:41:29;26.17;;;9.95;;
30617;SDS011;17384;51.214;9.202;2022-10-29T10:43:57;26.40;;;10.43;;
30617;SDS011;17384;51.214;9.202;2022-10-29T10:46:28;24.13;;;9.60;;
30617;SDS011;17384;51.214;9.202;2022-10-29T10:51:47;25.90;;;10.63;;
30617;SDS011;17384;51.214;9.202;2022-10-29T10:54:25;23.77;;;10.73;;
30617;SDS011;17384;51.214;9.202;2022-10-29T10:56:57;22.30;;;9.88;;
30617;SDS011;17384;51.214;9.202;2022-10-29T10:59:24;29.25;;;10.57;;
30617;SDS011;17384;51.214;9.202;2022-10-29T11:01:50;27.00;;;10.48;;
30617;SDS011;17384;51.214;9.202;2022-10-29T11:06:47;24.75;;;9.82;;
30617;SDS011;17384;51.214;9.202;2022-10-29T11:09:21;28.38;;;11.18;;
30617;SDS011;17384;51.214;9.202;2022-10-29T11:11:49;31.52;;;10.40;;
30617;SDS011;17384;51.214;9.202;2022-10-29T11:14:21;29.38;;;10.35;;
30617;SDS011;17384;51.214;9.202;2022-10-29T11:16:51;33.47;;;10.80;;
30617;SDS011;17384;51.214;9.202;2022-10-29T11:19:28;27.80;;;10.90;;
30617;SDS011;17384;51.214;9.202;2022-10-29T11:24:24;30.10;;;10.20;;
30617;SDS011;17384;51.214;9.202;2022-10-29T11:26:52;21.77;;;10.25;;
30617;SDS011;17384;51.214;9.202;2022-10-29T11:34:29;29.48;;;10.80;;
30617;SDS011;17384;51.214;9.202;2022-10-29T11:37:01;26.15;;;11.18;;
30617;SDS011;17384;51.214;9.202;2022-10-29T11:39:30;31.02;;;11.68;;
30617;SDS011;17384;51.214;9.202;2022-10-29T11:41:57;35.85;;;11.27;;
30617;SDS011;17384;51.214;9.202;2022-10-29T11:44:22;38.55;;;12.57;;
30617;SDS011;17384;51.214;9.202;2022-10-29T11:52:09;32.60;;;11.02;;
30617;SDS011;17384;51.214;9.202;2022-10-29T11:54:40;25.48;;;10.68;;
30617;SDS011;17384;51.214;9.202;2022-10-29T12:04:46;28.77;;;10.98;;
30617;SDS011;17384;51.214;9.202;2022-10-29T12:07:20;24.05;;;11.25;;
30617;SDS011;17384;51.214;9.202;2022-10-29T12:12:20;21.97;;;10.20;;
30617;SDS011;17384;51.214;9.202;2022-10-29T12:14:56;19.67;;;9.73;;
30617;SDS011;17384;51.214;9.202;2022-10-29T12:17:34;31.40;;;10.50;;
30617;SDS011;17384;51.214;9.202;2022-10-29T12:20:14;23.75;;;10.30;;
30617;SDS011;17384;51.214;9.202;2022-10-29T12:23:01;23.90;;;10.55;;
30617;SDS011;17384;51.214;9.202;2022-10-29T12:25:29;19.23;;;9.55;;
30617;SDS011;17384;51.214;9.202;2022-10-29T12:30:34;30.33;;;10.50;;
30617;SDS011;17384;51.214;9.202;2022-10-29T12:33:15;24.75;;;8.82;;
30617;SDS011;17384;51.214;9.202;2022-10-29T12:35:45;34.13;;;11.00;;
30617;SDS011;17384;51.214;9.202;2022-10-29T12:41:02;25.38;;;8.52;;
30617;SDS011;17384;51.214;9.202;2022-10-29T12:43:30;30.02;;;9.88;;
30617;SDS011;17384;51.214;9.202;2022-10-29T12:49:00;31.88;;;9.52;;
30617;SDS011;17384;51.214;9.202;2022-10-29T12:51:19;28.80;;;10.88;;
30617;SDS011;17384;51.214;9.202;2022-10-29T12:56:22;28.73;;;9.50;;
30617;SDS011;17384;51.214;9.202;2022-10-29T12:58:51;22.92;;;10.50;;
30617;SDS011;17384;51.214;9.202;2022-10-29T13:12:09;22.73;;;7.70;;
30617;SDS011;17384;51.214;9.202;2022-10-29T13:17:04;27.10;;;8.52;;
30617;SDS011;17384;51.214;9.202;2022-10-29T13:19:37;13.95;;;7.25;;
30617;SDS011;17384;51.214;9.202;2022-10-29T13:27:36;33.22;;;11.32;;
30617;SDS011;17384;51.214;9.202;2022-10-29T13:32:41;45.20;;;24.50;;
30617;SDS011;17384;51.214;9.202;2022-10-29T13:35:53;52.13;;;28.13;;
30617;SDS011;17384;51.214;9.202;2022-10-29T13:38:12;47.50;;;25.52;;
30617;SDS011;17384;51.214;9.202;2022-10-29T13:40:41;22.17;;;9.93;;
30617;SDS011;17384;51.214;9.202;2022-10-29T13:43:08;23.90;;;7.55;;
30617;SDS011;17384;51.214;9.202;2022-10-29T13:45:36;21.17;;;6.50;;
30617;SDS011;17384;51.214;9.202;2022-10-29T13:48:10;25.80;;;6.60;;
30617;SDS011;17384;51.214;9.202;2022-10-29T13:50:36;18.10;;;6.90;;
30617;SDS011;17384;51.214;9.202;2022-10-29T13:53:02;19.25;;;6.40;;
30617;SDS011;17384;51.214;9.202;2022-10-29T13:55:29;24.65;;;7.05;;
30617;SDS011;17384;51.214;9.202;2022-10-29T14:00:24;27.73;;;8.25;;
30617;SDS011;17384;51.214;9.202;2022-10-29T14:05:33;23.35;;;7.68;;
30617;SDS011;17384;51.214;9.202;2022-10-29T14:10:31;22.58;;;7.78;;
30617;SDS011;17384;51.214;9.202;2022-10-29T14:15:58;21.70;;;8.23;;
30617;SDS011;17384;51.214;9.202;2022-10-29T14:18:24;23.13;;;8.40;;
30617;SDS011;17384;51.214;9.202;2022-10-29T14:20:57;23.38;;;8.57;;
30617;SDS011;17384;51.214;9.202;2022-10-29T14:23:22;32.00;;;9.80;;
30617;SDS011;17384;51.214;9.202;2022-10-29T14:25:52;32.92;;;8.32;;
30617;SDS011;17384;51.214;9.202;2022-10-29T14:33:34;43.30;;;9.73;;
30617;SDS011;17384;51.214;9.202;2022-10-29T14:36:02;18.17;;;7.60;;
30617;SDS011;17384;51.214;9.202;2022-10-29T14:38:51;22.95;;;8.45;;
30617;SDS011;17384;51.214;9.202;2022-10-29T14:41:15;22.52;;;8.07;;
30617;SDS011;17384;51.214;9.202;2022-10-29T14:43:41;21.80;;;7.63;;
30617;SDS011;17384;51.214;9.202;2022-10-29T14:46:12;26.42;;;8.18;;
30617;SDS011;17384;51.214;9.202;2022-10-29T14:49:24;18.73;;;7.15;;
30617;SDS011;17384;51.214;9.202;2022-10-29T14:51:54;21.17;;;7.32;;
30617;SDS011;17384;51.214;9.202;2022-10-29T14:54:19;30.42;;;9.13;;
30617;SDS011;17384;51.214;9.202;2022-10-29T14:56:46;24.52;;;8.20;;
30617;SDS011;17384;51.214;9.202;2022-10-29T14:59:14;24.17;;;8.43;;
30617;SDS011;17384;51.214;9.202;2022-10-29T15:01:51;23.85;;;8.90;;
30617;SDS011;17384;51.214;9.202;2022-10-29T15:04:22;27.27;;;8.82;;
30617;SDS011;17384;51.214;9.202;2022-10-29T15:06:47;19.30;;;8.07;;
30617;SDS011;17384;51.214;9.202;2022-10-29T15:09:13;27.83;;;9.13;;
30617;SDS011;17384;51.214;9.202;2022-10-29T15:14:26;24.23;;;9.77;;
30617;SDS011;17384;51.214;9.202;2022-10-29T15:16:56;27.05;;;8.95;;
30617;SDS011;17384;51.214;9.202;2022-10-29T15:19:21;23.70;;;8.93;;
30617;SDS011;17384;51.214;9.202;2022-10-29T15:21:47;26.00;;;8.25;;
30617;SDS011;17384;51.214;9.202;2022-10-29T15:24:16;18.38;;;8.88;;
30617;SDS011;17384;51.214;9.202;2022-10-29T15:26:44;27.67;;;9.57;;
30617;SDS011;17384;51.214;9.202;2022-10-29T15:29:11;28.00;;;10.05;;
30617;SDS011;17384;51.214;9.202;2022-10-29T15:31:44;29.42;;;10.13;;
30617;SDS011;17384;51.214;9.202;2022-10-29T15:34:16;22.98;;;9.48;;
30617;SDS011;17384;51.214;9.202;2022-10-29T15:36:46;29.23;;;9.90;;
30617;SDS011;17384;51.214;9.202;2022-10-29T15:39:19;21.55;;;8.88;;
30617;SDS011;17384;51.214;9.202;2022-10-29T15:41:47;18.23;;;8.00;;
30617;SDS011;17384;51.214;9.202;2022-10-29T15:44:32;26.52;;;8.88;;
30617;SDS011;17384;51.214;9.202;2022-10-29T15:46:58;19.35;;;8.57;;
30617;SDS011;17384;51.214;9.202;2022-10-29T15:49:27;26.67;;;9.25;;
30617;SDS011;17384;51.214;9.202;2022-10-29T15:51:56;27.08;;;9.60;;
30617;SDS011;17384;51.214;9.202;2022-10-29T15:54:22;27.42;;;8.70;;
30617;SDS011;17384;51.214;9.202;2022-10-29T15:56:48;21.40;;;8.27;;
30617;SDS011;17384;51.214;9.202;2022-10-29T15:59:14;26.15;;;10.27;;
30617;SDS011;17384;51.214;9.202;2022-10-29T16:01:40;27.27;;;13.68;;
30617;SDS011;17384;51.214;9.202;2022-10-29T16:04:07;27.52;;;9.57;;
30617;SDS011;17384;51.214;9.202;2022-10-29T16:06:32;27.52;;;9.15;;
30617;SDS011;17384;51.214;9.202;2022-10-29T16:08:57;31.10;;;9.35;;
30617;SDS011;17384;51.214;9.202;2022-10-29T16:11:23;28.05;;;8.68;;
30617;SDS011;17384;51.214;9.202;2022-10-29T16:13:50;20.13;;;9.70;;
30617;SDS011;17384;51.214;9.202;2022-10-29T16:16:18;37.97;;;9.55;;
30617;SDS011;17384;51.214;9.202;2022-10-29T16:18:43;36.40;;;8.50;;
30617;SDS011;17384;51.214;9.202;2022-10-29T16:21:10;20.10;;;9.05;;
30617;SDS011;17384;51.214;9.202;2022-10-29T16:23:37;19.38;;;7.55;;
30617;SDS011;17384;51.214;9.202;2022-10-29T16:26:03;34.40;;;8.45;;
30617;SDS011;17384;51.214;9.202;2022-10-29T16:28:28;22.73;;;8.23;;
30617;SDS011;17384;51.214;9.202;2022-10-29T16:30:54;26.08;;;8.82;;
30617;SDS011;17384;51.214;9.202;2022-10-29T16:33:20;18.20;;;8.10;;
30617;SDS011;17384;51.214;9.202;2022-10-29T16:35:45;16.58;;;8.30;;
30617;SDS011;17384;51.214;9.202;2022-10-29T16:38:10;23.25;;;7.75;;
30617;SDS011;17384;51.214;9.202;2022-10-29T16:40:36;17.15;;;7.40;;
30617;SDS011;17384;51.214;9.202;2022-10-29T16:43:02;19.13;;;8.60;;
30617;SDS011;17384;51.214;9.202;2022-10-29T16:45:28;23.73;;;9.10;;
30617;SDS011;17384;51.214;9.202;2022-10-29T16:47:56;35.38;;;11.07;;
30617;SDS011;17384;51.214;9.202;2022-10-29T16:50:22;20.08;;;9.90;;
30617;SDS011;17384;51.214;9.202;2022-10-29T16:52:54;25.83;;;8.73;;
30617;SDS011;17384;51.214;9.202;2022-10-29T16:55:19;29.55;;;8.25;;
30617;SDS011;17384;51.214;9.202;2022-10-29T16:57:45;28.40;;;10.57;;
30617;SDS011;17384;51.214;9.202;2022-10-29T17:00:10;28.05;;;9.18;;